Portada
METAR-TAF:

METAR-TAF

Aeropuertos :

Lanzarote, España

Aeropuerto de Lanzarote

latitud: 28-57N, longitud: 013-36W, altitud: 14 m

Observación

El informe se hizo hace 23 minutos, a las 23:30 UTC
Viento 9 kt del norte-noreste
Temperatura 19°C
Humedad 64%
Presión 1022 hPa
Visibilidad 10 km o más
Escasas nubes a una altura de 3500 ft

METAR: GCRR 102330Z 02009KT 9999 FEW035 19/12 Q1022

Hora: 00:53 (23:53 UTC)

Pronóstico

El informe se hizo hace 3 horas y 53 minutos, a las 20:00 UTC
Pronóstico válido del 10 a las 21 UTC al 11 a las 21 UTC
Viento 12 kt del norte
Visibilidad 10 km o más
Escasas nubes a una altura de 3000 ft
Probabilidad 30% :
Temporalmente
del 11 a las 12 UTC al 11 a las 19 UTC
Viento 15 kt del norte con ráfagas de 25 kt

TAF: GCRR 102000Z 1021/1121 01012KT 9999 FEW030 TX25/1114Z TN17/1106Z PROB30 TEMPO 1112/1119 01015G25KT

Observaciones y pronósticos meteorológicos de más de 4000 aeropuertos (mensajes METAR y TAF).

Los puntos amarillos y rojos representan las estaciones disponibles.

Ponga el ratón en el punto deseado para ver el nombre de la estación.

Haga clic para ver las observaciones y los pronósticos meteorológicos.

Para cambiar el mapa : haga clic en los botones verdes con una cruz de color negro para hacer un zoom, en el botón verde con un guión para alejar o en las flechas verdes para mapas adyacentes.


METAR-TAF: